KYKN/YKN METAR and TAF weather

Enter ICAO airport designator
Station Type Date Time Source
KYKN METAR 2022/06/30 12:56 UTC NOAA

KYKN 301256Z AUTO 21012KT 10SM CLR 26/14 A2979 RMK AO2 SLP087 T02560144


Station Type Date Time Source
KYKN Decoded METAR 2022/06/30 12:56 UTC NOAA

Yankton, Chan Gurney Municipal Airport, SD, United States (KYKN) 42-55N 097-23W
Jun 30, 2022 - 08:56 AM EDT / 2022.06.30 1256 UTC
Wind: from the SSW (210 degrees) at 14 MPH (12 KT):0
Visibility: 10 mile(s):0
Sky conditions: clear
Temperature: 78.1 F (25.6 C)
Dew Point: 57.9 F (14.4 C)
Relative Humidity: 49%
Pressure (altimeter): 29.79 in. Hg (1008 hPa)
ob: KYKN 301256Z AUTO 21012KT 10SM CLR 26/14 A2979 RMK AO2 SLP087 T02560144
cycle: 13

Station Type Date Time Source
KYKN TAF UTC NOAA

Error!

Example: see airport list